sensor_id;sensor_type;location;lat;lon;timestamp;P1;durP1;ratioP1;P2;durP2;ratioP2
43487;SDS011;29078;41.932;25.554;2022-12-13T00:02:09;1.35;;;1.25;;
43487;SDS011;29078;41.932;25.554;2022-12-13T00:04:35;1.75;;;1.58;;
43487;SDS011;29078;41.932;25.554;2022-12-13T00:07:00;2.33;;;1.30;;
43487;SDS011;29078;41.932;25.554;2022-12-13T00:09:26;1.83;;;1.63;;
43487;SDS011;29078;41.932;25.554;2022-12-13T00:11:51;2.75;;;2.05;;
43487;SDS011;29078;41.932;25.554;2022-12-13T00:14:17;2.20;;;2.00;;
43487;SDS011;29078;41.932;25.554;2022-12-13T00:16:46;1.70;;;1.58;;
43487;SDS011;29078;41.932;25.554;2022-12-13T00:19:13;1.67;;;1.35;;
43487;SDS011;29078;41.932;25.554;2022-12-13T00:21:40;2.90;;;1.85;;
43487;SDS011;29078;41.932;25.554;2022-12-13T00:24:06;1.70;;;1.58;;
43487;SDS011;29078;41.932;25.554;2022-12-13T00:26:32;1.25;;;1.15;;
43487;SDS011;29078;41.932;25.554;2022-12-13T00:28:59;1.40;;;1.30;;
43487;SDS011;29078;41.932;25.554;2022-12-13T00:31:25;2.35;;;1.30;;
43487;SDS011;29078;41.932;25.554;2022-12-13T00:33:51;2.08;;;1.63;;
43487;SDS011;29078;41.932;25.554;2022-12-13T00:36:17;1.40;;;1.30;;
43487;SDS011;29078;41.932;25.554;2022-12-13T00:38:42;1.80;;;1.33;;
43487;SDS011;29078;41.932;25.554;2022-12-13T00:41:09;1.20;;;1.10;;
43487;SDS011;29078;41.932;25.554;2022-12-13T00:43:38;1.60;;;1.35;;
43487;SDS011;29078;41.932;25.554;2022-12-13T00:46:03;1.77;;;1.20;;
43487;SDS011;29078;41.932;25.554;2022-12-13T00:48:29;1.38;;;1.27;;
43487;SDS011;29078;41.932;25.554;2022-12-13T00:50:54;3.05;;;1.52;;
43487;SDS011;29078;41.932;25.554;2022-12-13T00:53:19;1.67;;;1.17;;
43487;SDS011;29078;41.932;25.554;2022-12-13T00:55:45;2.05;;;1.50;;
43487;SDS011;29078;41.932;25.554;2022-12-13T00:58:10;2.22;;;1.85;;
43487;SDS011;29078;41.932;25.554;2022-12-13T01:00:35;2.08;;;1.80;;
43487;SDS011;29078;41.932;25.554;2022-12-13T01:03:01;1.45;;;1.35;;
43487;SDS011;29078;41.932;25.554;2022-12-13T01:05:44;2.75;;;1.63;;
43487;SDS011;29078;41.932;25.554;2022-12-13T01:08:13;2.85;;;1.90;;
43487;SDS011;29078;41.932;25.554;2022-12-13T01:10:43;2.03;;;1.83;;
43487;SDS011;29078;41.932;25.554;2022-12-13T01:13:10;2.00;;;1.80;;
43487;SDS011;29078;41.932;25.554;2022-12-13T01:15:39;1.65;;;1.55;;
43487;SDS011;29078;41.932;25.554;2022-12-13T01:18:06;1.85;;;1.75;;
43487;SDS011;29078;41.932;25.554;2022-12-13T01:20:31;2.47;;;1.90;;
43487;SDS011;29078;41.932;25.554;2022-12-13T01:22:57;2.17;;;1.98;;
43487;SDS011;29078;41.932;25.554;2022-12-13T01:25:22;2.90;;;2.63;;
43487;SDS011;29078;41.932;25.554;2022-12-13T01:27:47;2.80;;;2.60;;
43487;SDS011;29078;41.932;25.554;2022-12-13T01:30:13;3.05;;;2.78;;
43487;SDS011;29078;41.932;25.554;2022-12-13T01:32:38;3.67;;;3.38;;
43487;SDS011;29078;41.932;25.554;2022-12-13T01:35:04;3.80;;;3.28;;
43487;SDS011;29078;41.932;25.554;2022-12-13T01:37:29;3.95;;;3.65;;
43487;SDS011;29078;41.932;25.554;2022-12-13T01:39:55;3.20;;;3.00;;
43487;SDS011;29078;41.932;25.554;2022-12-13T01:42:20;3.08;;;2.78;;
43487;SDS011;29078;41.932;25.554;2022-12-13T01:49:54;3.20;;;2.90;;
43487;SDS011;29078;41.932;25.554;2022-12-13T01:52:24;3.97;;;2.72;;
43487;SDS011;29078;41.932;25.554;2022-12-13T01:54:50;3.72;;;3.05;;
43487;SDS011;29078;41.932;25.554;2022-12-13T01:57:19;3.42;;;3.10;;
43487;SDS011;29078;41.932;25.554;2022-12-13T01:59:47;4.38;;;3.20;;
43487;SDS011;29078;41.932;25.554;2022-12-13T02:02:14;5.32;;;2.88;;
43487;SDS011;29078;41.932;25.554;2022-12-13T02:04:49;3.00;;;2.70;;
43487;SDS011;29078;41.932;25.554;2022-12-13T02:09:54;2.88;;;2.55;;
43487;SDS011;29078;41.932;25.554;2022-12-13T02:12:23;3.20;;;2.42;;
43487;SDS011;29078;41.932;25.554;2022-12-13T02:14:50;2.50;;;2.30;;
43487;SDS011;29078;41.932;25.554;2022-12-13T02:39:43;3.22;;;1.88;;
43487;SDS011;29078;41.932;25.554;2022-12-13T02:42:28;2.40;;;2.20;;
43487;SDS011;29078;41.932;25.554;2022-12-13T02:45:02;2.70;;;2.50;;
43487;SDS011;29078;41.932;25.554;2022-12-13T02:48:01;2.30;;;2.10;;
43487;SDS011;29078;41.932;25.554;2022-12-13T02:50:29;2.30;;;2.10;;
43487;SDS011;29078;41.932;25.554;2022-12-13T02:52:57;3.38;;;2.50;;
43487;SDS011;29078;41.932;25.554;2022-12-13T02:55:24;3.17;;;2.60;;
43487;SDS011;29078;41.932;25.554;2022-12-13T02:57:50;2.90;;;2.60;;
43487;SDS011;29078;41.932;25.554;2022-12-13T03:00:16;3.53;;;3.22;;
43487;SDS011;29078;41.932;25.554;2022-12-13T03:05:39;3.42;;;2.97;;
43487;SDS011;29078;41.932;25.554;2022-12-13T03:11:31;3.25;;;2.95;;
43487;SDS011;29078;41.932;25.554;2022-12-13T03:14:27;3.45;;;3.15;;
43487;SDS011;29078;41.932;25.554;2022-12-13T03:16:54;3.08;;;2.78;;
43487;SDS011;29078;41.932;25.554;2022-12-13T03:19:21;3.10;;;2.90;;
43487;SDS011;29078;41.932;25.554;2022-12-13T03:21:48;3.47;;;3.17;;
43487;SDS011;29078;41.932;25.554;2022-12-13T03:24:17;3.80;;;3.40;;
43487;SDS011;29078;41.932;25.554;2022-12-13T03:26:44;3.60;;;3.30;;
43487;SDS011;29078;41.932;25.554;2022-12-13T03:29:12;3.33;;;3.05;;
43487;SDS011;29078;41.932;25.554;2022-12-13T03:31:37;4.10;;;3.67;;
43487;SDS011;29078;41.932;25.554;2022-12-13T03:34:03;4.22;;;3.70;;
43487;SDS011;29078;41.932;25.554;2022-12-13T03:36:28;4.32;;;3.92;;
43487;SDS011;29078;41.932;25.554;2022-12-13T03:38:54;5.22;;;4.55;;
43487;SDS011;29078;41.932;25.554;2022-12-13T03:41:24;5.35;;;4.85;;
43487;SDS011;29078;41.932;25.554;2022-12-13T03:44:05;4.30;;;3.90;;
43487;SDS011;29078;41.932;25.554;2022-12-13T03:46:31;4.45;;;4.05;;
43487;SDS011;29078;41.932;25.554;2022-12-13T03:48:57;5.55;;;4.90;;
43487;SDS011;29078;41.932;25.554;2022-12-13T03:51:22;4.47;;;4.07;;
43487;SDS011;29078;41.932;25.554;2022-12-13T03:53:48;5.32;;;4.75;;
43487;SDS011;29078;41.932;25.554;2022-12-13T03:56:13;7.35;;;4.97;;
43487;SDS011;29078;41.932;25.554;2022-12-13T03:58:39;5.22;;;4.72;;
43487;SDS011;29078;41.932;25.554;2022-12-13T04:01:10;15.57;;;6.10;;
43487;SDS011;29078;41.932;25.554;2022-12-13T04:03:39;6.20;;;5.18;;
43487;SDS011;29078;41.932;25.554;2022-12-13T04:06:06;5.10;;;4.60;;
43487;SDS011;29078;41.932;25.554;2022-12-13T04:08:32;4.93;;;4.43;;
43487;SDS011;29078;41.932;25.554;2022-12-13T04:10:58;5.00;;;4.50;;
43487;SDS011;29078;41.932;25.554;2022-12-13T04:13:24;5.07;;;4.35;;
43487;SDS011;29078;41.932;25.554;2022-12-13T04:15:59;4.53;;;4.13;;
43487;SDS011;29078;41.932;25.554;2022-12-13T04:18:26;5.97;;;4.40;;
43487;SDS011;29078;41.932;25.554;2022-12-13T04:20:51;4.68;;;4.28;;
43487;SDS011;29078;41.932;25.554;2022-12-13T04:23:16;5.90;;;4.55;;
43487;SDS011;29078;41.932;25.554;2022-12-13T04:25:42;5.35;;;4.85;;
43487;SDS011;29078;41.932;25.554;2022-12-13T04:28:08;6.35;;;4.80;;
43487;SDS011;29078;41.932;25.554;2022-12-13T04:30:34;5.35;;;4.85;;
43487;SDS011;29078;41.932;25.554;2022-12-13T04:33:00;6.85;;;6.15;;
43487;SDS011;29078;41.932;25.554;2022-12-13T04:35:26;6.82;;;5.85;;
43487;SDS011;29078;41.932;25.554;2022-12-13T04:37:52;5.90;;;5.35;;
43487;SDS011;29078;41.932;25.554;2022-12-13T04:40:18;6.47;;;5.88;;
43487;SDS011;29078;41.932;25.554;2022-12-13T04:42:43;6.32;;;5.10;;
43487;SDS011;29078;41.932;25.554;2022-12-13T04:45:10;6.75;;;5.35;;
43487;SDS011;29078;41.932;25.554;2022-12-13T04:47:39;5.82;;;5.22;;
43487;SDS011;29078;41.932;25.554;2022-12-13T04:50:05;5.57;;;5.03;;
43487;SDS011;29078;41.932;25.554;2022-12-13T04:52:30;5.90;;;5.30;;
43487;SDS011;29078;41.932;25.554;2022-12-13T04:54:56;5.88;;;5.28;;
43487;SDS011;29078;41.932;25.554;2022-12-13T04:57:21;5.68;;;4.50;;
43487;SDS011;29078;41.932;25.554;2022-12-13T04:59:47;6.63;;;5.55;;
43487;SDS011;29078;41.932;25.554;2022-12-13T05:02:12;5.40;;;4.90;;
43487;SDS011;29078;41.932;25.554;2022-12-13T05:04:38;5.95;;;5.35;;
43487;SDS011;29078;41.932;25.554;2022-12-13T05:07:03;6.18;;;5.57;;
43487;SDS011;29078;41.932;25.554;2022-12-13T05:09:29;5.70;;;4.60;;
43487;SDS011;29078;41.932;25.554;2022-12-13T05:11:54;7.70;;;5.82;;
43487;SDS011;29078;41.932;25.554;2022-12-13T05:14:20;5.93;;;5.35;;
43487;SDS011;29078;41.932;25.554;2022-12-13T05:16:46;5.93;;;5.32;;
43487;SDS011;29078;41.932;25.554;2022-12-13T05:19:11;6.13;;;5.53;;
43487;SDS011;29078;41.932;25.554;2022-12-13T05:21:37;6.55;;;5.95;;
43487;SDS011;29078;41.932;25.554;2022-12-13T05:24:02;5.88;;;5.38;;
43487;SDS011;29078;41.932;25.554;2022-12-13T05:26:28;6.75;;;6.05;;
43487;SDS011;29078;41.932;25.554;2022-12-13T05:28:54;6.60;;;5.90;;
43487;SDS011;29078;41.932;25.554;2022-12-13T05:31:21;8.05;;;6.45;;
43487;SDS011;29078;41.932;25.554;2022-12-13T05:33:46;6.63;;;6.03;;
43487;SDS011;29078;41.932;25.554;2022-12-13T05:36:12;6.65;;;5.95;;
43487;SDS011;29078;41.932;25.554;2022-12-13T05:38:38;7.10;;;5.80;;
43487;SDS011;29078;41.932;25.554;2022-12-13T05:41:04;6.40;;;5.25;;
43487;SDS011;29078;41.932;25.554;2022-12-13T05:43:30;6.28;;;5.68;;
43487;SDS011;29078;41.932;25.554;2022-12-13T05:45:55;6.68;;;5.90;;
43487;SDS011;29078;41.932;25.554;2022-12-13T05:48:21;7.53;;;6.07;;
43487;SDS011;29078;41.932;25.554;2022-12-13T05:50:46;7.15;;;6.15;;
43487;SDS011;29078;41.932;25.554;2022-12-13T05:53:11;6.45;;;5.70;;
43487;SDS011;29078;41.932;25.554;2022-12-13T05:55:37;7.07;;;6.28;;
43487;SDS011;29078;41.932;25.554;2022-12-13T05:58:03;7.03;;;5.63;;
43487;SDS011;29078;41.932;25.554;2022-12-13T06:00:29;7.28;;;6.38;;
43487;SDS011;29078;41.932;25.554;2022-12-13T06:02:54;6.88;;;6.18;;
43487;SDS011;29078;41.932;25.554;2022-12-13T06:05:20;7.90;;;5.97;;
43487;SDS011;29078;41.932;25.554;2022-12-13T06:07:45;6.97;;;6.25;;
43487;SDS011;29078;41.932;25.554;2022-12-13T06:10:10;7.78;;;6.20;;
43487;SDS011;29078;41.932;25.554;2022-12-13T06:12:36;8.50;;;7.13;;
43487;SDS011;29078;41.932;25.554;2022-12-13T06:15:03;7.78;;;6.78;;
43487;SDS011;29078;41.932;25.554;2022-12-13T06:17:34;9.60;;;7.40;;
43487;SDS011;29078;41.932;25.554;2022-12-13T06:20:00;9.90;;;7.18;;
43487;SDS011;29078;41.932;25.554;2022-12-13T06:22:27;9.40;;;7.47;;
43487;SDS011;29078;41.932;25.554;2022-12-13T06:24:52;10.13;;;8.40;;
43487;SDS011;29078;41.932;25.554;2022-12-13T06:27:19;9.10;;;7.97;;
43487;SDS011;29078;41.932;25.554;2022-12-13T06:29:44;8.23;;;7.43;;
43487;SDS011;29078;41.932;25.554;2022-12-13T06:32:09;9.52;;;7.93;;
43487;SDS011;29078;41.932;25.554;2022-12-13T06:34:35;9.85;;;7.70;;
43487;SDS011;29078;41.932;25.554;2022-12-13T06:37:02;7.63;;;6.43;;
43487;SDS011;29078;41.932;25.554;2022-12-13T06:39:29;7.53;;;6.72;;
43487;SDS011;29078;41.932;25.554;2022-12-13T06:41:55;9.70;;;6.82;;
43487;SDS011;29078;41.932;25.554;2022-12-13T06:44:20;9.27;;;7.50;;
43487;SDS011;29078;41.932;25.554;2022-12-13T06:46:46;10.15;;;8.95;;
43487;SDS011;29078;41.932;25.554;2022-12-13T06:49:11;14.52;;;9.55;;
43487;SDS011;29078;41.932;25.554;2022-12-13T06:51:36;13.23;;;10.05;;
43487;SDS011;29078;41.932;25.554;2022-12-13T06:54:02;10.98;;;8.70;;
43487;SDS011;29078;41.932;25.554;2022-12-13T06:56:28;12.15;;;8.32;;
43487;SDS011;29078;41.932;25.554;2022-12-13T06:58:54;12.77;;;9.98;;
43487;SDS011;29078;41.932;25.554;2022-12-13T07:01:20;11.18;;;8.82;;
43487;SDS011;29078;41.932;25.554;2022-12-13T07:03:45;10.48;;;8.70;;
43487;SDS011;29078;41.932;25.554;2022-12-13T07:06:12;9.73;;;8.27;;
43487;SDS011;29078;41.932;25.554;2022-12-13T07:08:39;12.48;;;10.68;;
43487;SDS011;29078;41.932;25.554;2022-12-13T07:11:05;10.95;;;8.55;;
43487;SDS011;29078;41.932;25.554;2022-12-13T07:13:31;9.73;;;8.73;;
43487;SDS011;29078;41.932;25.554;2022-12-13T07:15:58;9.38;;;8.45;;
43487;SDS011;29078;41.932;25.554;2022-12-13T07:18:24;9.10;;;8.20;;
43487;SDS011;29078;41.932;25.554;2022-12-13T07:20:50;10.40;;;9.18;;
43487;SDS011;29078;41.932;25.554;2022-12-13T07:23:15;11.85;;;10.45;;
43487;SDS011;29078;41.932;25.554;2022-12-13T07:25:41;10.82;;;9.57;;
43487;SDS011;29078;41.932;25.554;2022-12-13T07:28:07;13.02;;;11.65;;
43487;SDS011;29078;41.932;25.554;2022-12-13T07:30:37;11.93;;;10.65;;
43487;SDS011;29078;41.932;25.554;2022-12-13T07:33:03;14.15;;;10.80;;
43487;SDS011;29078;41.932;25.554;2022-12-13T07:35:30;10.93;;;9.48;;
43487;SDS011;29078;41.932;25.554;2022-12-13T07:37:56;13.30;;;10.00;;
43487;SDS011;29078;41.932;25.554;2022-12-13T07:40:22;11.27;;;9.75;;
43487;SDS011;29078;41.932;25.554;2022-12-13T07:42:49;12.10;;;8.80;;
43487;SDS011;29078;41.932;25.554;2022-12-13T07:45:18;12.02;;;9.30;;
43487;SDS011;29078;41.932;25.554;2022-12-13T07:47:43;12.18;;;9.77;;
43487;SDS011;29078;41.932;25.554;2022-12-13T07:50:09;10.80;;;9.32;;
43487;SDS011;29078;41.932;25.554;2022-12-13T07:52:36;10.15;;;8.68;;
43487;SDS011;29078;41.932;25.554;2022-12-13T07:55:01;8.32;;;7.38;;
43487;SDS011;29078;41.932;25.554;2022-12-13T07:57:28;11.80;;;9.48;;
43487;SDS011;29078;41.932;25.554;2022-12-13T07:59:53;10.27;;;8.77;;
43487;SDS011;29078;41.932;25.554;2022-12-13T08:02:19;10.23;;;8.48;;
43487;SDS011;29078;41.932;25.554;2022-12-13T08:04:44;8.90;;;7.15;;
43487;SDS011;29078;41.932;25.554;2022-12-13T08:07:10;7.88;;;6.85;;
43487;SDS011;29078;41.932;25.554;2022-12-13T08:09:35;9.75;;;7.95;;
43487;SDS011;29078;41.932;25.554;2022-12-13T08:12:01;9.77;;;7.25;;
43487;SDS011;29078;41.932;25.554;2022-12-13T08:14:27;8.63;;;7.43;;
43487;SDS011;29078;41.932;25.554;2022-12-13T08:16:52;7.20;;;6.47;;
43487;SDS011;29078;41.932;25.554;2022-12-13T08:19:18;8.88;;;6.45;;
43487;SDS011;29078;41.932;25.554;2022-12-13T08:21:43;8.20;;;7.40;;
43487;SDS011;29078;41.932;25.554;2022-12-13T08:24:09;6.78;;;6.07;;
43487;SDS011;29078;41.932;25.554;2022-12-13T08:26:34;9.40;;;7.20;;
43487;SDS011;29078;41.932;25.554;2022-12-13T08:29:00;11.45;;;9.38;;
43487;SDS011;29078;41.932;25.554;2022-12-13T08:31:25;10.48;;;8.60;;
43487;SDS011;29078;41.932;25.554;2022-12-13T08:33:51;8.70;;;7.40;;
43487;SDS011;29078;41.932;25.554;2022-12-13T08:36:17;7.45;;;6.50;;
43487;SDS011;29078;41.932;25.554;2022-12-13T08:38:43;9.45;;;7.15;;
43487;SDS011;29078;41.932;25.554;2022-12-13T08:41:09;10.13;;;7.03;;
43487;SDS011;29078;41.932;25.554;2022-12-13T08:43:35;10.20;;;6.80;;
43487;SDS011;29078;41.932;25.554;2022-12-13T08:46:01;8.68;;;6.60;;
43487;SDS011;29078;41.932;25.554;2022-12-13T08:48:27;9.23;;;7.28;;
43487;SDS011;29078;41.932;25.554;2022-12-13T08:50:52;10.70;;;7.35;;
43487;SDS011;29078;41.932;25.554;2022-12-13T08:53:18;10.25;;;8.10;;
43487;SDS011;29078;41.932;25.554;2022-12-13T08:55:43;9.88;;;7.05;;
43487;SDS011;29078;41.932;25.554;2022-12-13T08:58:09;8.00;;;6.50;;
43487;SDS011;29078;41.932;25.554;2022-12-13T09:00:35;7.20;;;6.50;;
43487;SDS011;29078;41.932;25.554;2022-12-13T09:03:02;10.02;;;8.27;;
43487;SDS011;29078;41.932;25.554;2022-12-13T09:05:28;7.78;;;6.97;;
43487;SDS011;29078;41.932;25.554;2022-12-13T09:07:54;10.88;;;7.57;;
43487;SDS011;29078;41.932;25.554;2022-12-13T09:10:20;8.98;;;7.50;;
43487;SDS011;29078;41.932;25.554;2022-12-13T09:12:46;10.05;;;7.93;;
43487;SDS011;29078;41.932;25.554;2022-12-13T09:15:11;8.15;;;7.22;;
43487;SDS011;29078;41.932;25.554;2022-12-13T09:17:37;10.38;;;7.60;;
43487;SDS011;29078;41.932;25.554;2022-12-13T09:20:04;10.38;;;8.00;;
43487;SDS011;29078;41.932;25.554;2022-12-13T09:22:35;10.23;;;7.22;;
43487;SDS011;29078;41.932;25.554;2022-12-13T09:25:01;12.80;;;8.20;;
43487;SDS011;29078;41.932;25.554;2022-12-13T09:27:28;9.18;;;6.82;;
43487;SDS011;29078;41.932;25.554;2022-12-13T09:29:54;10.93;;;8.20;;
43487;SDS011;29078;41.932;25.554;2022-12-13T09:32:19;8.50;;;7.03;;
43487;SDS011;29078;41.932;25.554;2022-12-13T09:34:46;7.93;;;6.15;;
43487;SDS011;29078;41.932;25.554;2022-12-13T09:37:11;12.50;;;7.90;;
43487;SDS011;29078;41.932;25.554;2022-12-13T09:39:37;9.45;;;7.68;;
43487;SDS011;29078;41.932;25.554;2022-12-13T09:42:03;11.05;;;8.27;;
43487;SDS011;29078;41.932;25.554;2022-12-13T09:44:37;13.68;;;8.68;;
43487;SDS011;29078;41.932;25.554;2022-12-13T09:47:10;11.02;;;8.40;;
43487;SDS011;29078;41.932;25.554;2022-12-13T09:49:43;8.25;;;7.00;;
43487;SDS011;29078;41.932;25.554;2022-12-13T09:52:15;9.80;;;7.28;;
43487;SDS011;29078;41.932;25.554;2022-12-13T09:54:43;10.63;;;7.57;;
43487;SDS011;29078;41.932;25.554;2022-12-13T09:57:14;8.95;;;7.50;;
43487;SDS011;29078;41.932;25.554;2022-12-13T09:59:46;10.38;;;7.18;;
43487;SDS011;29078;41.932;25.554;2022-12-13T10:02:26;14.35;;;7.07;;
43487;SDS011;29078;41.932;25.554;2022-12-13T10:04:54;8.80;;;6.95;;
43487;SDS011;29078;41.932;25.554;2022-12-13T10:07:33;12.07;;;7.78;;
43487;SDS011;29078;41.932;25.554;2022-12-13T10:10:00;9.35;;;7.05;;
43487;SDS011;29078;41.932;25.554;2022-12-13T10:12:26;9.82;;;7.40;;
43487;SDS011;29078;41.932;25.554;2022-12-13T10:14:54;10.23;;;7.40;;
43487;SDS011;29078;41.932;25.554;2022-12-13T10:17:23;9.73;;;7.15;;
43487;SDS011;29078;41.932;25.554;2022-12-13T10:19:52;10.40;;;8.07;;
43487;SDS011;29078;41.932;25.554;2022-12-13T10:22:19;14.65;;;9.07;;
43487;SDS011;29078;41.932;25.554;2022-12-13T10:24:56;16.75;;;10.23;;
43487;SDS011;29078;41.932;25.554;2022-12-13T10:29:56;13.90;;;10.07;;
43487;SDS011;29078;41.932;25.554;2022-12-13T10:32:22;12.27;;;8.88;;
43487;SDS011;29078;41.932;25.554;2022-12-13T10:34:48;14.27;;;9.40;;
43487;SDS011;29078;41.932;25.554;2022-12-13T10:39:53;10.65;;;8.60;;
43487;SDS011;29078;41.932;25.554;2022-12-13T10:42:20;14.50;;;10.43;;
43487;SDS011;29078;41.932;25.554;2022-12-13T10:44:46;10.63;;;8.18;;
43487;SDS011;29078;41.932;25.554;2022-12-13T10:49:52;11.23;;;7.97;;
43487;SDS011;29078;41.932;25.554;2022-12-13T10:52:33;8.82;;;7.20;;
43487;SDS011;29078;41.932;25.554;2022-12-13T10:55:03;10.60;;;8.23;;
43487;SDS011;29078;41.932;25.554;2022-12-13T10:57:53;10.55;;;7.78;;
43487;SDS011;29078;41.932;25.554;2022-12-13T11:00:39;9.27;;;7.45;;
43487;SDS011;29078;41.932;25.554;2022-12-13T11:03:06;11.45;;;8.43;;
43487;SDS011;29078;41.932;25.554;2022-12-13T11:05:34;11.38;;;8.60;;
43487;SDS011;29078;41.932;25.554;2022-12-13T11:08:15;9.73;;;7.80;;
43487;SDS011;29078;41.932;25.554;2022-12-13T11:11:25;9.40;;;6.93;;
43487;SDS011;29078;41.932;25.554;2022-12-13T11:13:52;17.15;;;13.93;;
43487;SDS011;29078;41.932;25.554;2022-12-13T11:16:20;11.32;;;9.13;;
43487;SDS011;29078;41.932;25.554;2022-12-13T11:18:51;11.93;;;8.73;;
43487;SDS011;29078;41.932;25.554;2022-12-13T11:21:31;12.98;;;8.48;;
43487;SDS011;29078;41.932;25.554;2022-12-13T11:24:01;12.18;;;9.65;;
43487;SDS011;29078;41.932;25.554;2022-12-13T11:26:30;10.73;;;8.63;;
43487;SDS011;29078;41.932;25.554;2022-12-13T11:34:33;8.55;;;7.50;;
43487;SDS011;29078;41.932;25.554;2022-12-13T11:40:13;11.48;;;8.65;;
43487;SDS011;29078;41.932;25.554;2022-12-13T11:42:58;8.38;;;7.32;;
43487;SDS011;29078;41.932;25.554;2022-12-13T11:45:38;9.25;;;8.05;;
43487;SDS011;29078;41.932;25.554;2022-12-13T11:48:12;10.10;;;7.70;;
43487;SDS011;29078;41.932;25.554;2022-12-13T11:50:46;21.00;;;13.98;;
43487;SDS011;29078;41.932;25.554;2022-12-13T11:55:54;14.18;;;9.90;;
43487;SDS011;29078;41.932;25.554;2022-12-13T11:58:24;11.70;;;9.20;;
43487;SDS011;29078;41.932;25.554;2022-12-13T12:01:02;12.32;;;9.63;;
43487;SDS011;29078;41.932;25.554;2022-12-13T12:06:27;9.93;;;7.53;;
43487;SDS011;29078;41.932;25.554;2022-12-13T12:09:00;12.57;;;8.27;;
43487;SDS011;29078;41.932;25.554;2022-12-13T12:16:53;12.07;;;9.40;;
43487;SDS011;29078;41.932;25.554;2022-12-13T12:19:22;13.35;;;9.05;;
43487;SDS011;29078;41.932;25.554;2022-12-13T12:30:09;9.10;;;7.93;;
43487;SDS011;29078;41.932;25.554;2022-12-13T12:32:52;12.50;;;9.35;;
43487;SDS011;29078;41.932;25.554;2022-12-13T12:44:08;15.20;;;9.55;;
43487;SDS011;29078;41.932;25.554;2022-12-13T13:01:24;9.60;;;6.90;;
43487;SDS011;29078;41.932;25.554;2022-12-13T13:03:53;12.95;;;9.13;;
43487;SDS011;29078;41.932;25.554;2022-12-13T13:06:37;10.52;;;8.43;;
43487;SDS011;29078;41.932;25.554;2022-12-13T13:09:09;10.20;;;7.28;;
43487;SDS011;29078;41.932;25.554;2022-12-13T13:11:38;10.75;;;7.28;;
43487;SDS011;29078;41.932;25.554;2022-12-13T13:16:53;12.85;;;7.68;;
43487;SDS011;29078;41.932;25.554;2022-12-13T13:24:18;12.77;;;7.80;;
43487;SDS011;29078;41.932;25.554;2022-12-13T13:34:29;19.70;;;13.98;;
43487;SDS011;29078;41.932;25.554;2022-12-13T13:36:57;19.98;;;14.15;;
43487;SDS011;29078;41.932;25.554;2022-12-13T13:41:53;18.88;;;14.68;;
43487;SDS011;29078;41.932;25.554;2022-12-13T13:44:32;14.13;;;8.35;;
43487;SDS011;29078;41.932;25.554;2022-12-13T13:47:11;10.98;;;7.90;;
43487;SDS011;29078;41.932;25.554;2022-12-13T13:49:42;13.52;;;8.27;;
43487;SDS011;29078;41.932;25.554;2022-12-13T14:09:12;13.07;;;9.32;;
43487;SDS011;29078;41.932;25.554;2022-12-13T14:11:49;16.80;;;11.82;;
43487;SDS011;29078;41.932;25.554;2022-12-13T14:20:46;13.15;;;9.02;;
43487;SDS011;29078;41.932;25.554;2022-12-13T14:29:15;15.95;;;11.45;;
43487;SDS011;29078;41.932;25.554;2022-12-13T14:31:45;17.80;;;11.45;;
43487;SDS011;29078;41.932;25.554;2022-12-13T14:34:21;17.08;;;11.77;;
43487;SDS011;29078;41.932;25.554;2022-12-13T14:39:24;15.50;;;11.75;;
43487;SDS011;29078;41.932;25.554;2022-12-13T14:41:54;16.58;;;10.93;;
43487;SDS011;29078;41.932;25.554;2022-12-13T14:44:21;15.77;;;10.98;;
43487;SDS011;29078;41.932;25.554;2022-12-13T14:46:55;17.15;;;9.18;;
43487;SDS011;29078;41.932;25.554;2022-12-13T14:49:25;17.58;;;9.77;;
43487;SDS011;29078;41.932;25.554;2022-12-13T14:51:53;17.13;;;10.02;;
43487;SDS011;29078;41.932;25.554;2022-12-13T14:54:35;15.50;;;9.65;;
43487;SDS011;29078;41.932;25.554;2022-12-13T14:57:17;16.77;;;9.48;;
43487;SDS011;29078;41.932;25.554;2022-12-13T14:59:48;17.15;;;10.77;;
43487;SDS011;29078;41.932;25.554;2022-12-13T15:02:23;16.25;;;11.30;;
43487;SDS011;29078;41.932;25.554;2022-12-13T15:04:57;19.30;;;13.30;;
43487;SDS011;29078;41.932;25.554;2022-12-13T15:12:46;33.30;;;22.05;;
43487;SDS011;29078;41.932;25.554;2022-12-13T15:15:34;26.55;;;17.27;;
43487;SDS011;29078;41.932;25.554;2022-12-13T15:18:18;22.23;;;14.82;;
43487;SDS011;29078;41.932;25.554;2022-12-13T15:20:45;28.67;;;19.48;;
43487;SDS011;29078;41.932;25.554;2022-12-13T15:23:14;28.23;;;21.05;;
43487;SDS011;29078;41.932;25.554;2022-12-13T15:25:42;34.50;;;21.52;;
43487;SDS011;29078;41.932;25.554;2022-12-13T15:28:11;29.98;;;20.10;;
43487;SDS011;29078;41.932;25.554;2022-12-13T15:30:38;27.98;;;19.08;;
43487;SDS011;29078;41.932;25.554;2022-12-13T15:33:26;29.13;;;18.25;;
43487;SDS011;29078;41.932;25.554;2022-12-13T15:36:00;29.58;;;18.75;;
43487;SDS011;29078;41.932;25.554;2022-12-13T15:38:25;23.65;;;16.88;;
43487;SDS011;29078;41.932;25.554;2022-12-13T15:40:51;24.55;;;17.48;;
43487;SDS011;29078;41.932;25.554;2022-12-13T15:43:18;22.95;;;17.75;;
43487;SDS011;29078;41.932;25.554;2022-12-13T15:45:47;25.40;;;16.27;;
43487;SDS011;29078;41.932;25.554;2022-12-13T15:48:47;25.52;;;18.15;;
43487;SDS011;29078;41.932;25.554;2022-12-13T15:53:58;29.10;;;19.70;;
43487;SDS011;29078;41.932;25.554;2022-12-13T15:59:02;29.75;;;19.85;;
43487;SDS011;29078;41.932;25.554;2022-12-13T16:01:30;25.55;;;19.33;;
43487;SDS011;29078;41.932;25.554;2022-12-13T16:04:00;29.85;;;17.77;;
43487;SDS011;29078;41.932;25.554;2022-12-13T16:06:30;28.50;;;20.70;;
43487;SDS011;29078;41.932;25.554;2022-12-13T16:08:57;25.60;;;16.33;;
43487;SDS011;29078;41.932;25.554;2022-12-13T16:11:26;25.50;;;17.60;;
43487;SDS011;29078;41.932;25.554;2022-12-13T16:17:09;32.15;;;22.50;;
43487;SDS011;29078;41.932;25.554;2022-12-13T16:19:40;37.45;;;25.88;;
43487;SDS011;29078;41.932;25.554;2022-12-13T16:22:06;28.05;;;18.88;;
43487;SDS011;29078;41.932;25.554;2022-12-13T16:24:31;44.53;;;29.23;;
43487;SDS011;29078;41.932;25.554;2022-12-13T16:26:57;60.85;;;42.20;;
43487;SDS011;29078;41.932;25.554;2022-12-13T16:29:22;57.63;;;41.38;;
43487;SDS011;29078;41.932;25.554;2022-12-13T16:31:48;62.63;;;41.75;;
43487;SDS011;29078;41.932;25.554;2022-12-13T16:34:13;62.95;;;42.45;;
43487;SDS011;29078;41.932;25.554;2022-12-13T16:36:41;54.75;;;39.60;;
43487;SDS011;29078;41.932;25.554;2022-12-13T16:39:08;51.85;;;35.58;;
43487;SDS011;29078;41.932;25.554;2022-12-13T16:41:35;47.85;;;31.30;;
43487;SDS011;29078;41.932;25.554;2022-12-13T16:44:03;44.35;;;28.73;;
43487;SDS011;29078;41.932;25.554;2022-12-13T16:46:30;45.95;;;30.27;;
43487;SDS011;29078;41.932;25.554;2022-12-13T16:48:56;50.50;;;33.42;;
43487;SDS011;29078;41.932;25.554;2022-12-13T16:51:21;48.85;;;33.05;;
43487;SDS011;29078;41.932;25.554;2022-12-13T16:53:47;54.30;;;34.95;;
43487;SDS011;29078;41.932;25.554;2022-12-13T16:56:13;50.95;;;35.50;;
43487;SDS011;29078;41.932;25.554;2022-12-13T16:58:41;55.05;;;36.20;;
43487;SDS011;29078;41.932;25.554;2022-12-13T17:01:11;57.35;;;40.95;;
43487;SDS011;29078;41.932;25.554;2022-12-13T17:03:38;53.65;;;41.53;;
43487;SDS011;29078;41.932;25.554;2022-12-13T17:06:05;57.80;;;41.10;;
43487;SDS011;29078;41.932;25.554;2022-12-13T17:08:32;56.92;;;42.38;;
43487;SDS011;29078;41.932;25.554;2022-12-13T17:10:58;90.22;;;57.72;;
43487;SDS011;29078;41.932;25.554;2022-12-13T17:13:23;126.95;;;68.78;;